WARNING - Change wsUserSettings.php: $SITE["topfolder"] from : DATOS/ to: ./
Welcome to our new website - Welkom op onze vernieuwde website - Bienvenue sur notre nouveau site web - Willkommen auf unserer neuen Website
Check our progress frequently. Prüfen Sie unsere Fortschritte regelmäßig. Consultez notre progression fréquemment. Komt u straks nog eens terug


visit paypall to install this item



Thunder radar more information blitzortung!


Rain radar more information rain snow radar


Visita nuestra red de sitios de meteo:

Template documentation
and downloads

And another site



Wind From: 22-01-2021 04:00 Until: 11:59 warning for: Wind Level: Orange info button

Informes METAR proximidad

   
EHVK - Volkel Rnlafb, Netherlands
Distancia hasta la estación: SW 18 km
Actualización: 21-01-2021 23:55
lluvia, Llovizna, Nublado  
lluvia, Llovizna, Nublado  
   Viento: SSW 35.2 km/h<br />Gust to 35.2 km/h
Viento: SSW 35.2 km/h
Gust to 35.2 km/h
Temperatura: 9°C
Térmica: 5°C
Punto de rocio: 7°C
Humedad: 87%
Barometro: 982 hPa
Nublado: Nublado
Visibilidad: More than 10 km
detalles de la nube: Parcialmente Nublado 1500 ft,
Parcialmente nublado 1800 ft,
Nublado 2300 ft
EHVK 212255Z AUTO 21019G30KT 180V250 9999 -RADZ SCT015 BKN018 OVC023 09/07 Q0982 WHT
EDLV - Niederrhein, Germany
Distancia hasta la estación: SE 25 km
Actualización: 18-01-2021 23:50
NO actual
Parcialmente nublado  
Parcialmente nublado  
   Viento: SW 14.8 km/h
Viento: SW 14.8 km/h
Temperatura: 6°C
Térmica: 3°C
Punto de rocio: 4°C
Humedad: 87%
Barometro: 1017 hPa
Nublado: Parcialmente nublado
Visibilidad: More than 10 km
detalles de la nube: Parcialmente nublado 1400 ft
EDLV 182250Z 22008KT 9999 BKN014 06/04 Q1017
EHDL - Deelen Rnlafb, Netherlands
Distancia hasta la estación: N 35 km
Actualización: 21-01-2021 23:55
lluvia, Parcialmente nublado  
lluvia, Parcialmente nublado  
   Viento: South 27.8 km/h
Viento: South 27.8 km/h
Temperatura: 8°C
Térmica: 4°C
Punto de rocio: 8°C
Humedad: 100%
Barometro: 981 hPa
Nublado: Parcialmente nublado
Visibilidad: 7 km
detalles de la nube: Nubes dispersas 500 ft,
Parcialmente Nublado 600 ft,
Parcialmente nublado 700 ft,
Nubes dispersas 1500 ft
EHDL 212255Z AUTO 19015KT 130V240 7000 -RA FEW005 SCT006 BKN007 FEW015CB 08/08 Q0981 RERA REDZ YLO
EHEH - Eindhoven Rnlafb, Netherlands
Distancia hasta la estación: SW 48 km
Actualización: 21-01-2021 23:55
lluvia, Parcialmente nublado  
lluvia, Parcialmente nublado  
   Viento: SSW 29.6 km/h
Viento: SSW 29.6 km/h
Temperatura: 9°C
Térmica: 6°C
Punto de rocio: 8°C
Humedad: 94%
Barometro: 982 hPa
Nublado: Parcialmente nublado
Visibilidad: More than 10 km
detalles de la nube: Nubes dispersas 1500 ft,
Parcialmente nublado 2000 ft,
Parcialmente nublado 2400 ft
EHEH 212255Z AUTO 20016KT 9999 -RA FEW015CB BKN020 BKN024 09/08 Q0982 RERA REDZ WHT
EHGR - Gilze-Rijen Rnla, Netherlands
Distancia hasta la estación: WSW 70 km
Actualización: 21-01-2021 23:55
Heavy Showers, Luvia, Parcialmente nublado  
Heavy Showers, Luvia, Parcialmente nublado  
   Viento: WNW 18.5 km/h
Viento: WNW 18.5 km/h
Temperatura: 6°C
Térmica: 3°C
Punto de rocio: 5°C
Humedad: 93%
Barometro: 982 hPa
Nublado: Parcialmente nublado
Visibilidad: 4 km
detalles de la nube: Parcialmente Nublado 400 ft,
Parcialmente Nublado 500 ft,
Parcialmente nublado 700 ft,
Nubes dispersas 1500 ft
EHGR 212255Z AUTO 30010KT 230V330 4300 +SHRA SCT004 SCT005 BKN007 FEW015CB 06/05 Q0982 REDZ YLO
EBBL - Kleine-Brogel(Ba, Belgium
Distancia hasta la estación: SSW 71 km
Actualización: 20-01-2021 19:55
NO actual
Parcialmente nublado  
Parcialmente nublado  
   Viento: South 9.3 km/h
Viento: South 9.3 km/h
Temperatura: 9°C
Térmica: 8°C
Punto de rocio: 2°C
Humedad: 62%
Barometro: 994 hPa
Nublado: Parcialmente nublado
Visibilidad: More than 10 km
detalles de la nube: Parcialmente Nublado 14000 ft,
Parcialmente nublado 23000 ft
EBBL 201855Z AUTO 18005KT 9999 SCT140/// BKN230/// 09/02 Q0994 BLU

Guión original por  Saratoga-weather.org Adaptado para la plantilla por  Weerstation Leuven